sensor_id;sensor_type;location;lat;lon;timestamp;P1;durP1;ratioP1;P2;durP2;ratioP2
54917;SDS011;40818;50.562;7.454;2022-11-04T00:04:07;0.60;;;0.00;;
54917;SDS011;40818;50.562;7.454;2022-11-04T00:09:13;1.65;;;0.00;;
54917;SDS011;40818;50.562;7.454;2022-11-04T00:14:21;0.65;;;0.00;;
54917;SDS011;40818;50.562;7.454;2022-11-04T00:19:25;0.55;;;0.10;;
54917;SDS011;40818;50.562;7.454;2022-11-04T00:24:28;0.25;;;0.00;;
54917;SDS011;40818;50.562;7.454;2022-11-04T00:29:46;0.35;;;0.10;;
54917;SDS011;40818;50.562;7.454;2022-11-04T00:34:50;0.28;;;0.00;;
54917;SDS011;40818;50.562;7.454;2022-11-04T00:39:53;0.22;;;0.00;;
54917;SDS011;40818;50.562;7.454;2022-11-04T00:44:59;0.20;;;0.00;;
54917;SDS011;40818;50.562;7.454;2022-11-04T00:50:03;5.30;;;0.08;;
54917;SDS011;40818;50.562;7.454;2022-11-04T00:55:08;0.40;;;0.00;;
54917;SDS011;40818;50.562;7.454;2022-11-04T01:00:14;0.50;;;0.00;;
54917;SDS011;40818;50.562;7.454;2022-11-04T01:05:19;0.57;;;0.00;;
54917;SDS011;40818;50.562;7.454;2022-11-04T01:10:22;1.50;;;0.03;;
54917;SDS011;40818;50.562;7.454;2022-11-04T01:15:28;1.33;;;0.05;;
54917;SDS011;40818;50.562;7.454;2022-11-04T01:20:32;0.25;;;0.00;;
54917;SDS011;40818;50.562;7.454;2022-11-04T01:25:37;0.28;;;0.03;;
54917;SDS011;40818;50.562;7.454;2022-11-04T01:30:44;0.68;;;0.03;;
54917;SDS011;40818;50.562;7.454;2022-11-04T01:35:47;1.55;;;0.10;;
54917;SDS011;40818;50.562;7.454;2022-11-04T01:40:51;0.20;;;0.00;;
54917;SDS011;40818;50.562;7.454;2022-11-04T01:45:57;0.40;;;0.00;;
54917;SDS011;40818;50.562;7.454;2022-11-04T01:51:03;0.80;;;0.10;;
54917;SDS011;40818;50.562;7.454;2022-11-04T01:56:08;0.43;;;0.00;;
54917;SDS011;40818;50.562;7.454;2022-11-04T02:01:17;0.30;;;0.00;;
54917;SDS011;40818;50.562;7.454;2022-11-04T02:06:21;0.63;;;0.10;;
54917;SDS011;40818;50.562;7.454;2022-11-04T02:11:24;0.30;;;0.10;;
54917;SDS011;40818;50.562;7.454;2022-11-04T02:16:56;0.20;;;0.00;;
54917;SDS011;40818;50.562;7.454;2022-11-04T02:27:47;2.45;;;0.00;;
54917;SDS011;40818;50.562;7.454;2022-11-04T02:33:13;1.48;;;0.03;;
54917;SDS011;40818;50.562;7.454;2022-11-04T02:38:27;1.40;;;0.10;;
54917;SDS011;40818;50.562;7.454;2022-11-04T02:43:38;1.00;;;0.10;;
54917;SDS011;40818;50.562;7.454;2022-11-04T02:48:51;3.67;;;0.10;;
54917;SDS011;40818;50.562;7.454;2022-11-04T02:54:00;4.13;;;0.10;;
54917;SDS011;40818;50.562;7.454;2022-11-04T02:59:09;0.57;;;0.10;;
54917;SDS011;40818;50.562;7.454;2022-11-04T03:04:21;3.55;;;0.10;;
54917;SDS011;40818;50.562;7.454;2022-11-04T03:09:30;2.35;;;0.10;;
54917;SDS011;40818;50.562;7.454;2022-11-04T03:14:38;2.45;;;0.10;;
54917;SDS011;40818;50.562;7.454;2022-11-04T03:19:48;2.60;;;0.00;;
54917;SDS011;40818;50.562;7.454;2022-11-04T03:24:55;2.40;;;0.10;;
54917;SDS011;40818;50.562;7.454;2022-11-04T03:30:00;8.05;;;0.10;;
54917;SDS011;40818;50.562;7.454;2022-11-04T03:35:10;1.42;;;0.10;;
54917;SDS011;40818;50.562;7.454;2022-11-04T03:40:16;1.10;;;0.10;;
54917;SDS011;40818;50.562;7.454;2022-11-04T03:45:21;1.17;;;0.13;;
54917;SDS011;40818;50.562;7.454;2022-11-04T03:50:28;1.55;;;0.08;;
54917;SDS011;40818;50.562;7.454;2022-11-04T03:55:35;3.72;;;0.20;;
54917;SDS011;40818;50.562;7.454;2022-11-04T04:00:46;6.35;;;0.10;;
54917;SDS011;40818;50.562;7.454;2022-11-04T04:05:55;2.25;;;0.10;;
54917;SDS011;40818;50.562;7.454;2022-11-04T04:11:10;1.50;;;0.10;;
54917;SDS011;40818;50.562;7.454;2022-11-04T04:16:20;7.18;;;0.20;;
54917;SDS011;40818;50.562;7.454;2022-11-04T04:21:33;1.10;;;0.10;;
54917;SDS011;40818;50.562;7.454;2022-11-04T04:26:43;1.13;;;0.10;;
54917;SDS011;40818;50.562;7.454;2022-11-04T04:32:01;3.67;;;0.10;;
54917;SDS011;40818;50.562;7.454;2022-11-04T04:37:10;1.45;;;0.10;;
54917;SDS011;40818;50.562;7.454;2022-11-04T04:42:19;2.72;;;0.15;;
54917;SDS011;40818;50.562;7.454;2022-11-04T04:47:37;2.35;;;0.20;;
54917;SDS011;40818;50.562;7.454;2022-11-04T04:52:48;0.90;;;0.20;;
54917;SDS011;40818;50.562;7.454;2022-11-04T04:57:54;1.38;;;0.20;;
54917;SDS011;40818;50.562;7.454;2022-11-04T05:02:57;4.35;;;0.30;;
54917;SDS011;40818;50.562;7.454;2022-11-04T05:08:06;1.80;;;0.30;;
54917;SDS011;40818;50.562;7.454;2022-11-04T05:13:10;6.85;;;0.20;;
54917;SDS011;40818;50.562;7.454;2022-11-04T05:18:30;2.85;;;0.20;;
54917;SDS011;40818;50.562;7.454;2022-11-04T05:23:36;5.85;;;0.30;;
54917;SDS011;40818;50.562;7.454;2022-11-04T05:28:39;4.13;;;0.30;;
54917;SDS011;40818;50.562;7.454;2022-11-04T05:33:43;4.22;;;0.30;;
54917;SDS011;40818;50.562;7.454;2022-11-04T05:38:51;7.45;;;0.47;;
54917;SDS011;40818;50.562;7.454;2022-11-04T05:43:56;2.15;;;0.30;;
54917;SDS011;40818;50.562;7.454;2022-11-04T05:49:01;5.55;;;0.30;;
54917;SDS011;40818;50.562;7.454;2022-11-04T05:54:07;8.00;;;0.40;;
54917;SDS011;40818;50.562;7.454;2022-11-04T05:59:11;3.40;;;0.60;;
54917;SDS011;40818;50.562;7.454;2022-11-04T06:04:15;3.42;;;0.35;;
54917;SDS011;40818;50.562;7.454;2022-11-04T06:09:22;6.05;;;0.30;;
54917;SDS011;40818;50.562;7.454;2022-11-04T06:14:38;3.13;;;0.25;;
54917;SDS011;40818;50.562;7.454;2022-11-04T06:19:41;4.80;;;0.30;;
54917;SDS011;40818;50.562;7.454;2022-11-04T06:24:47;4.57;;;0.30;;
54917;SDS011;40818;50.562;7.454;2022-11-04T06:29:51;3.55;;;0.30;;
54917;SDS011;40818;50.562;7.454;2022-11-04T06:34:55;3.05;;;0.40;;
54917;SDS011;40818;50.562;7.454;2022-11-04T06:40:01;3.05;;;0.30;;
54917;SDS011;40818;50.562;7.454;2022-11-04T06:45:05;2.97;;;0.30;;
54917;SDS011;40818;50.562;7.454;2022-11-04T06:50:09;6.00;;;0.25;;
54917;SDS011;40818;50.562;7.454;2022-11-04T06:55:16;3.22;;;0.30;;
54917;SDS011;40818;50.562;7.454;2022-11-04T07:00:20;5.93;;;0.57;;
54917;SDS011;40818;50.562;7.454;2022-11-04T07:05:27;7.18;;;0.30;;
54917;SDS011;40818;50.562;7.454;2022-11-04T07:10:33;5.10;;;0.32;;
54917;SDS011;40818;50.562;7.454;2022-11-04T07:15:36;5.35;;;0.30;;
54917;SDS011;40818;50.562;7.454;2022-11-04T07:20:40;11.07;;;0.40;;
54917;SDS011;40818;50.562;7.454;2022-11-04T07:25:46;2.38;;;0.40;;
54917;SDS011;40818;50.562;7.454;2022-11-04T07:30:50;7.13;;;0.32;;
54917;SDS011;40818;50.562;7.454;2022-11-04T07:35:53;6.80;;;0.30;;
54917;SDS011;40818;50.562;7.454;2022-11-04T07:40:59;3.40;;;0.30;;
54917;SDS011;40818;50.562;7.454;2022-11-04T07:46:03;10.27;;;0.32;;
54917;SDS011;40818;50.562;7.454;2022-11-04T07:51:10;7.05;;;0.43;;
54917;SDS011;40818;50.562;7.454;2022-11-04T07:56:19;6.30;;;0.40;;
54917;SDS011;40818;50.562;7.454;2022-11-04T08:01:23;3.25;;;0.30;;
54917;SDS011;40818;50.562;7.454;2022-11-04T08:06:28;2.63;;;0.22;;
54917;SDS011;40818;50.562;7.454;2022-11-04T08:11:35;3.70;;;0.30;;
54917;SDS011;40818;50.562;7.454;2022-11-04T08:16:38;3.17;;;0.20;;
54917;SDS011;40818;50.562;7.454;2022-11-04T08:21:42;2.80;;;0.20;;
54917;SDS011;40818;50.562;7.454;2022-11-04T08:26:48;3.15;;;0.25;;
54917;SDS011;40818;50.562;7.454;2022-11-04T08:31:52;13.68;;;0.40;;
54917;SDS011;40818;50.562;7.454;2022-11-04T08:36:56;3.35;;;0.30;;
54917;SDS011;40818;50.562;7.454;2022-11-04T08:42:02;7.10;;;0.32;;
54917;SDS011;40818;50.562;7.454;2022-11-04T08:47:05;6.25;;;0.30;;
54917;SDS011;40818;50.562;7.454;2022-11-04T08:52:09;3.10;;;0.30;;
54917;SDS011;40818;50.562;7.454;2022-11-04T08:57:15;6.68;;;0.30;;
54917;SDS011;40818;50.562;7.454;2022-11-04T09:02:18;16.95;;;0.35;;
54917;SDS011;40818;50.562;7.454;2022-11-04T09:07:22;6.35;;;0.20;;
54917;SDS011;40818;50.562;7.454;2022-11-04T09:12:28;3.72;;;0.28;;
54917;SDS011;40818;50.562;7.454;2022-11-04T09:17:31;5.65;;;0.22;;
54917;SDS011;40818;50.562;7.454;2022-11-04T09:22:35;4.18;;;0.45;;
54917;SDS011;40818;50.562;7.454;2022-11-04T09:27:41;4.05;;;0.40;;
54917;SDS011;40818;50.562;7.454;2022-11-04T09:32:44;3.95;;;0.20;;
54917;SDS011;40818;50.562;7.454;2022-11-04T09:37:48;2.70;;;0.30;;
54917;SDS011;40818;50.562;7.454;2022-11-04T09:42:57;2.05;;;0.30;;
54917;SDS011;40818;50.562;7.454;2022-11-04T09:48:10;5.32;;;0.20;;
54917;SDS011;40818;50.562;7.454;2022-11-04T09:53:24;3.70;;;0.20;;
54917;SDS011;40818;50.562;7.454;2022-11-04T09:58:35;3.78;;;0.20;;
54917;SDS011;40818;50.562;7.454;2022-11-04T10:03:47;3.85;;;0.30;;
54917;SDS011;40818;50.562;7.454;2022-11-04T10:09:03;1.50;;;0.20;;
54917;SDS011;40818;50.562;7.454;2022-11-04T10:14:28;2.17;;;0.20;;
54917;SDS011;40818;50.562;7.454;2022-11-04T10:19:55;3.05;;;0.20;;
54917;SDS011;40818;50.562;7.454;2022-11-04T10:25:07;2.13;;;0.20;;
54917;SDS011;40818;50.562;7.454;2022-11-04T10:30:18;3.65;;;0.20;;
54917;SDS011;40818;50.562;7.454;2022-11-04T10:35:24;2.72;;;0.20;;
54917;SDS011;40818;50.562;7.454;2022-11-04T10:40:35;3.35;;;0.20;;
54917;SDS011;40818;50.562;7.454;2022-11-04T10:45:47;4.20;;;0.25;;
54917;SDS011;40818;50.562;7.454;2022-11-04T10:50:56;2.65;;;0.30;;
54917;SDS011;40818;50.562;7.454;2022-11-04T10:56:03;4.50;;;0.30;;
54917;SDS011;40818;50.562;7.454;2022-11-04T11:01:26;3.67;;;0.30;;
54917;SDS011;40818;50.562;7.454;2022-11-04T11:06:31;4.55;;;0.30;;
54917;SDS011;40818;50.562;7.454;2022-11-04T11:11:38;4.78;;;0.20;;
54917;SDS011;40818;50.562;7.454;2022-11-04T11:16:47;3.30;;;0.20;;
54917;SDS011;40818;50.562;7.454;2022-11-04T11:21:51;5.75;;;0.30;;
54917;SDS011;40818;50.562;7.454;2022-11-04T11:26:56;4.57;;;0.38;;
54917;SDS011;40818;50.562;7.454;2022-11-04T11:32:05;1.90;;;0.30;;
54917;SDS011;40818;50.562;7.454;2022-11-04T11:37:25;1.20;;;0.20;;
54917;SDS011;40818;50.562;7.454;2022-11-04T11:42:31;5.03;;;0.30;;
54917;SDS011;40818;50.562;7.454;2022-11-04T11:47:37;2.53;;;0.13;;
54917;SDS011;40818;50.562;7.454;2022-11-04T11:52:41;2.20;;;0.20;;
54917;SDS011;40818;50.562;7.454;2022-11-04T11:57:51;1.65;;;0.20;;
54917;SDS011;40818;50.562;7.454;2022-11-04T12:03:07;2.17;;;0.30;;
54917;SDS011;40818;50.562;7.454;2022-11-04T12:08:25;1.70;;;0.28;;
54917;SDS011;40818;50.562;7.454;2022-11-04T12:13:43;0.82;;;0.20;;
54917;SDS011;40818;50.562;7.454;2022-11-04T12:18:56;1.00;;;0.10;;
54917;SDS011;40818;50.562;7.454;2022-11-04T12:24:12;1.58;;;0.10;;
54917;SDS011;40818;50.562;7.454;2022-11-04T12:29:29;0.60;;;0.10;;
54917;SDS011;40818;50.562;7.454;2022-11-04T12:34:51;4.28;;;0.10;;
54917;SDS011;40818;50.562;7.454;2022-11-04T12:40:11;2.95;;;0.15;;
54917;SDS011;40818;50.562;7.454;2022-11-04T12:45:24;3.22;;;0.20;;
54917;SDS011;40818;50.562;7.454;2022-11-04T12:50:45;0.98;;;0.10;;
54917;SDS011;40818;50.562;7.454;2022-11-04T12:55:58;1.70;;;0.10;;
54917;SDS011;40818;50.562;7.454;2022-11-04T13:01:09;0.70;;;0.10;;
54917;SDS011;40818;50.562;7.454;2022-11-04T13:06:20;1.10;;;0.10;;
54917;SDS011;40818;50.562;7.454;2022-11-04T13:11:29;0.82;;;0.13;;
54917;SDS011;40818;50.562;7.454;2022-11-04T13:16:38;0.85;;;0.20;;
54917;SDS011;40818;50.562;7.454;2022-11-04T13:21:46;0.63;;;0.10;;
54917;SDS011;40818;50.562;7.454;2022-11-04T13:26:50;1.50;;;0.40;;
54917;SDS011;40818;50.562;7.454;2022-11-04T13:31:55;1.13;;;0.17;;
54917;SDS011;40818;50.562;7.454;2022-11-04T13:37:09;1.95;;;0.10;;
54917;SDS011;40818;50.562;7.454;2022-11-04T13:42:22;0.60;;;0.10;;
54917;SDS011;40818;50.562;7.454;2022-11-04T13:47:45;0.40;;;0.00;;
54917;SDS011;40818;50.562;7.454;2022-11-04T13:52:55;1.00;;;0.00;;
54917;SDS011;40818;50.562;7.454;2022-11-04T13:57:58;1.73;;;0.10;;
54917;SDS011;40818;50.562;7.454;2022-11-04T14:09:22;1.48;;;0.10;;
54917;SDS011;40818;50.562;7.454;2022-11-04T14:14:31;0.90;;;0.00;;
54917;SDS011;40818;50.562;7.454;2022-11-04T14:25:00;0.95;;;0.10;;
54917;SDS011;40818;50.562;7.454;2022-11-04T14:30:16;0.63;;;0.00;;
54917;SDS011;40818;50.562;7.454;2022-11-04T14:35:44;1.40;;;0.22;;
54917;SDS011;40818;50.562;7.454;2022-11-04T14:40:49;0.20;;;0.00;;
54917;SDS011;40818;50.562;7.454;2022-11-04T14:45:56;0.80;;;0.10;;
54917;SDS011;40818;50.562;7.454;2022-11-04T14:51:02;1.10;;;0.10;;
54917;SDS011;40818;50.562;7.454;2022-11-04T14:56:10;0.75;;;0.00;;
54917;SDS011;40818;50.562;7.454;2022-11-04T15:01:19;4.70;;;0.30;;
54917;SDS011;40818;50.562;7.454;2022-11-04T15:06:24;1.20;;;0.47;;
54917;SDS011;40818;50.562;7.454;2022-11-04T15:11:29;0.82;;;0.20;;
54917;SDS011;40818;50.562;7.454;2022-11-04T15:16:48;2.15;;;0.20;;
54917;SDS011;40818;50.562;7.454;2022-11-04T15:21:54;0.50;;;0.00;;
54917;SDS011;40818;50.562;7.454;2022-11-04T15:27:00;0.77;;;0.00;;
54917;SDS011;40818;50.562;7.454;2022-11-04T15:32:14;0.57;;;0.10;;
54917;SDS011;40818;50.562;7.454;2022-11-04T15:37:19;0.90;;;0.20;;
54917;SDS011;40818;50.562;7.454;2022-11-04T15:42:25;2.25;;;0.40;;
54917;SDS011;40818;50.562;7.454;2022-11-04T15:47:45;3.92;;;0.30;;
54917;SDS011;40818;50.562;7.454;2022-11-04T15:52:49;1.20;;;0.22;;
54917;SDS011;40818;50.562;7.454;2022-11-04T15:57:56;1.40;;;0.20;;
54917;SDS011;40818;50.562;7.454;2022-11-04T16:03:02;1.00;;;0.20;;
54917;SDS011;40818;50.562;7.454;2022-11-04T16:08:13;2.53;;;0.20;;
54917;SDS011;40818;50.562;7.454;2022-11-04T16:13:21;2.13;;;0.63;;
54917;SDS011;40818;50.562;7.454;2022-11-04T16:18:32;15.23;;;8.48;;
54917;SDS011;40818;50.562;7.454;2022-11-04T16:28:46;3.45;;;0.20;;
54917;SDS011;40818;50.562;7.454;2022-11-04T16:33:58;1.75;;;0.13;;
54917;SDS011;40818;50.562;7.454;2022-11-04T16:39:02;1.48;;;0.40;;
54917;SDS011;40818;50.562;7.454;2022-11-04T16:44:13;1.33;;;0.40;;
54917;SDS011;40818;50.562;7.454;2022-11-04T16:49:22;2.92;;;0.30;;
54917;SDS011;40818;50.562;7.454;2022-11-04T16:54:26;1.02;;;0.20;;
54917;SDS011;40818;50.562;7.454;2022-11-04T16:59:29;2.75;;;0.30;;
54917;SDS011;40818;50.562;7.454;2022-11-04T17:04:35;2.05;;;0.40;;
54917;SDS011;40818;50.562;7.454;2022-11-04T17:09:39;2.28;;;0.68;;
54917;SDS011;40818;50.562;7.454;2022-11-04T17:14:42;3.83;;;0.60;;
54917;SDS011;40818;50.562;7.454;2022-11-04T17:19:48;2.13;;;0.57;;
54917;SDS011;40818;50.562;7.454;2022-11-04T17:24:51;2.28;;;0.70;;
54917;SDS011;40818;50.562;7.454;2022-11-04T17:29:55;1.33;;;0.40;;
54917;SDS011;40818;50.562;7.454;2022-11-04T17:35:01;1.33;;;0.38;;
54917;SDS011;40818;50.562;7.454;2022-11-04T17:40:05;5.00;;;1.42;;
54917;SDS011;40818;50.562;7.454;2022-11-04T17:45:11;7.30;;;2.17;;
54917;SDS011;40818;50.562;7.454;2022-11-04T17:50:17;7.25;;;0.85;;
54917;SDS011;40818;50.562;7.454;2022-11-04T17:55:21;2.25;;;0.40;;
54917;SDS011;40818;50.562;7.454;2022-11-04T18:00:24;1.55;;;0.50;;
54917;SDS011;40818;50.562;7.454;2022-11-04T18:05:31;1.90;;;0.60;;
54917;SDS011;40818;50.562;7.454;2022-11-04T18:10:34;1.48;;;0.60;;
54917;SDS011;40818;50.562;7.454;2022-11-04T18:15:38;2.45;;;0.50;;
54917;SDS011;40818;50.562;7.454;2022-11-04T18:20:44;3.55;;;0.50;;
54917;SDS011;40818;50.562;7.454;2022-11-04T18:25:47;3.17;;;0.70;;
54917;SDS011;40818;50.562;7.454;2022-11-04T18:30:51;10.25;;;2.67;;
54917;SDS011;40818;50.562;7.454;2022-11-04T18:35:57;6.03;;;1.00;;
54917;SDS011;40818;50.562;7.454;2022-11-04T18:41:04;2.30;;;0.70;;
54917;SDS011;40818;50.562;7.454;2022-11-04T18:46:09;2.85;;;0.70;;
54917;SDS011;40818;50.562;7.454;2022-11-04T18:51:17;11.32;;;0.80;;
54917;SDS011;40818;50.562;7.454;2022-11-04T18:56:23;2.58;;;0.68;;
54917;SDS011;40818;50.562;7.454;2022-11-04T19:01:27;2.05;;;0.65;;
54917;SDS011;40818;50.562;7.454;2022-11-04T19:06:34;2.30;;;0.70;;
54917;SDS011;40818;50.562;7.454;2022-11-04T19:11:42;2.78;;;0.60;;
54917;SDS011;40818;50.562;7.454;2022-11-04T19:16:46;3.58;;;0.90;;
54917;SDS011;40818;50.562;7.454;2022-11-04T19:21:52;4.22;;;0.90;;
54917;SDS011;40818;50.562;7.454;2022-11-04T19:26:55;4.45;;;1.10;;
54917;SDS011;40818;50.562;7.454;2022-11-04T19:31:59;3.78;;;1.10;;
54917;SDS011;40818;50.562;7.454;2022-11-04T19:37:05;4.10;;;1.02;;
54917;SDS011;40818;50.562;7.454;2022-11-04T19:42:10;3.15;;;1.02;;
54917;SDS011;40818;50.562;7.454;2022-11-04T19:47:26;7.68;;;1.45;;
54917;SDS011;40818;50.562;7.454;2022-11-04T19:52:32;5.22;;;1.02;;
54917;SDS011;40818;50.562;7.454;2022-11-04T19:57:35;4.78;;;1.13;;
54917;SDS011;40818;50.562;7.454;2022-11-04T20:02:39;5.05;;;1.20;;
54917;SDS011;40818;50.562;7.454;2022-11-04T20:07:45;5.25;;;1.23;;
54917;SDS011;40818;50.562;7.454;2022-11-04T20:12:53;5.10;;;1.50;;
54917;SDS011;40818;50.562;7.454;2022-11-04T20:18:09;3.28;;;1.10;;
54917;SDS011;40818;50.562;7.454;2022-11-04T20:23:15;4.60;;;1.60;;
54917;SDS011;40818;50.562;7.454;2022-11-04T20:28:19;8.73;;;2.10;;
54917;SDS011;40818;50.562;7.454;2022-11-04T20:33:22;7.88;;;2.90;;
54917;SDS011;40818;50.562;7.454;2022-11-04T20:38:28;5.43;;;2.60;;
54917;SDS011;40818;50.562;7.454;2022-11-04T20:43:32;6.45;;;2.67;;
54917;SDS011;40818;50.562;7.454;2022-11-04T20:48:37;5.28;;;2.53;;
54917;SDS011;40818;50.562;7.454;2022-11-04T20:53:43;7.25;;;2.28;;
54917;SDS011;40818;50.562;7.454;2022-11-04T20:58:47;4.68;;;2.50;;
54917;SDS011;40818;50.562;7.454;2022-11-04T21:03:51;5.57;;;3.25;;
54917;SDS011;40818;50.562;7.454;2022-11-04T21:08:59;8.02;;;4.75;;
54917;SDS011;40818;50.562;7.454;2022-11-04T21:14:02;13.35;;;6.38;;
54917;SDS011;40818;50.562;7.454;2022-11-04T21:19:06;15.55;;;7.20;;
54917;SDS011;40818;50.562;7.454;2022-11-04T21:24:14;15.88;;;7.50;;
54917;SDS011;40818;50.562;7.454;2022-11-04T21:29:18;13.23;;;7.15;;
54917;SDS011;40818;50.562;7.454;2022-11-04T21:34:22;18.15;;;7.35;;
54917;SDS011;40818;50.562;7.454;2022-11-04T21:39:28;22.23;;;10.40;;
54917;SDS011;40818;50.562;7.454;2022-11-04T21:44:32;20.40;;;10.02;;
54917;SDS011;40818;50.562;7.454;2022-11-04T21:49:36;20.55;;;9.95;;
54917;SDS011;40818;50.562;7.454;2022-11-04T21:54:42;18.08;;;8.48;;
54917;SDS011;40818;50.562;7.454;2022-11-04T21:59:45;16.42;;;9.82;;
54917;SDS011;40818;50.562;7.454;2022-11-04T22:04:49;31.38;;;14.43;;
54917;SDS011;40818;50.562;7.454;2022-11-04T22:09:55;27.63;;;12.90;;
54917;SDS011;40818;50.562;7.454;2022-11-04T22:14:59;22.23;;;11.85;;
54917;SDS011;40818;50.562;7.454;2022-11-04T22:20:02;31.17;;;14.02;;
54917;SDS011;40818;50.562;7.454;2022-11-04T22:25:10;27.52;;;13.27;;
54917;SDS011;40818;50.562;7.454;2022-11-04T22:30:13;27.70;;;13.82;;
54917;SDS011;40818;50.562;7.454;2022-11-04T22:35:17;30.10;;;15.95;;
54917;SDS011;40818;50.562;7.454;2022-11-04T22:40:23;32.55;;;16.75;;
54917;SDS011;40818;50.562;7.454;2022-11-04T22:45:26;32.88;;;17.60;;
54917;SDS011;40818;50.562;7.454;2022-11-04T22:50:30;39.22;;;18.95;;
54917;SDS011;40818;50.562;7.454;2022-11-04T22:55:37;44.22;;;19.55;;
54917;SDS011;40818;50.562;7.454;2022-11-04T23:00:41;46.72;;;20.77;;
54917;SDS011;40818;50.562;7.454;2022-11-04T23:05:44;43.05;;;21.20;;
54917;SDS011;40818;50.562;7.454;2022-11-04T23:10:53;50.22;;;24.85;;
54917;SDS011;40818;50.562;7.454;2022-11-04T23:16:10;45.10;;;23.42;;
54917;SDS011;40818;50.562;7.454;2022-11-04T23:21:27;43.45;;;22.23;;
54917;SDS011;40818;50.562;7.454;2022-11-04T23:26:45;51.13;;;24.77;;
54917;SDS011;40818;50.562;7.454;2022-11-04T23:31:49;50.08;;;26.48;;
54917;SDS011;40818;50.562;7.454;2022-11-04T23:36:53;51.10;;;24.95;;
54917;SDS011;40818;50.562;7.454;2022-11-04T23:42:12;55.88;;;26.50;;
54917;SDS011;40818;50.562;7.454;2022-11-04T23:47:20;48.60;;;25.50;;
54917;SDS011;40818;50.562;7.454;2022-11-04T23:52:35;61.20;;;27.83;;
54917;SDS011;40818;50.562;7.454;2022-11-04T23:57:54;57.22;;;29.73;;
